createdAt,value
2022-11-15T00:00:49.127Z,81.88
2022-11-15T00:03:16.979Z,81.85
2022-11-15T00:05:43.876Z,81.95
2022-11-15T00:08:11.110Z,82.13
2022-11-15T00:10:38.087Z,82.26
2022-11-15T00:13:09.039Z,82.09
2022-11-15T00:15:37.384Z,81.97
2022-11-15T00:18:05.029Z,82.23
2022-11-15T00:20:32.779Z,82.48
2022-11-15T00:22:59.739Z,82.27
2022-11-15T00:25:26.620Z,82.35
2022-11-15T00:27:56.614Z,82.30
2022-11-15T00:30:23.732Z,82.06
2022-11-15T00:32:50.776Z,82.27
2022-11-15T00:35:17.882Z,82.37
2022-11-15T00:37:44.842Z,82.52
2022-11-15T00:40:13.851Z,82.26
2022-11-15T00:42:40.917Z,82.22
2022-11-15T00:45:08.333Z,82.33
2022-11-15T00:47:35.212Z,82.50
2022-11-15T00:50:02.130Z,82.15
2022-11-15T00:52:29.051Z,82.55
2022-11-15T00:54:55.981Z,82.49
2022-11-15T00:57:22.855Z,82.78
2022-11-15T00:59:49.753Z,82.79
2022-11-15T01:02:16.643Z,82.72
2022-11-15T01:04:43.543Z,82.91
2022-11-15T01:07:10.664Z,82.75
2022-11-15T01:09:39.651Z,82.71
2022-11-15T01:12:06.561Z,82.83
2022-11-15T01:14:33.681Z,82.91
2022-11-15T01:17:00.565Z,83.09
2022-11-15T01:19:27.449Z,83.01
2022-11-15T01:21:54.427Z,82.74
2022-11-15T01:24:21.325Z,83.00
2022-11-15T01:26:48.254Z,83.43
2022-11-15T01:29:15.160Z,83.31
2022-11-15T01:31:42.129Z,83.58
2022-11-15T01:34:09.100Z,83.54
2022-11-15T01:36:35.989Z,83.59
2022-11-15T01:39:02.928Z,83.60
2022-11-15T01:41:32.204Z,83.74
2022-11-15T01:44:32.318Z,83.58
2022-11-15T01:47:00.519Z,83.80
2022-11-15T01:49:27.441Z,83.84
2022-11-15T01:51:54.611Z,83.90
2022-11-15T01:54:22.075Z,84.14
2022-11-15T01:56:57.738Z,84.23
2022-11-15T01:59:24.615Z,83.94
2022-11-15T02:04:37.427Z,84.32
2022-11-15T02:07:04.791Z,84.50
2022-11-15T02:09:31.771Z,84.73
2022-11-15T02:11:58.699Z,84.59
2022-11-15T02:14:26.082Z,84.52
2022-11-15T02:17:14.205Z,84.68
2022-11-15T02:20:04.150Z,85.03
2022-11-15T02:22:52.983Z,85.11
2022-11-15T02:25:44.718Z,85.18
2022-11-15T02:28:26.736Z,85.00
2022-11-15T02:31:11.177Z,84.89
2022-11-15T02:33:56.310Z,85.18
2022-11-15T02:36:36.858Z,85.27
2022-11-15T02:39:08.079Z,85.11
2022-11-15T02:41:44.590Z,85.27
2022-11-15T02:44:30.157Z,85.38
2022-11-15T02:47:15.156Z,85.57
2022-11-15T02:49:50.824Z,85.59
2022-11-15T02:52:18.828Z,85.58
2022-11-15T02:54:55.189Z,85.79
2022-11-15T02:57:43.272Z,85.71
2022-11-15T03:00:14.806Z,86.03
2022-11-15T03:02:47.890Z,86.04
2022-11-15T03:05:30.305Z,86.08
2022-11-15T03:08:23.915Z,86.12
2022-11-15T03:10:57.996Z,86.35
2022-11-15T03:13:32.485Z,86.23
2022-11-15T03:16:10.592Z,86.38
2022-11-15T03:18:39.955Z,86.63
2022-11-15T03:21:08.143Z,86.58
2022-11-15T03:23:35.100Z,86.68
2022-11-15T03:26:02.340Z,86.64
2022-11-15T03:28:49.136Z,86.69
2022-11-15T03:31:50.306Z,86.96
2022-11-15T03:34:23.782Z,86.87
2022-11-15T03:36:50.716Z,86.79
2022-11-15T03:39:20.726Z,86.79
2022-11-15T03:41:52.153Z,86.88
2022-11-15T03:44:18.980Z,86.95
2022-11-15T03:46:49.405Z,87.00
2022-11-15T03:49:37.376Z,87.14
2022-11-15T03:52:04.848Z,87.16
2022-11-15T03:54:31.794Z,87.25
2022-11-15T03:56:58.861Z,87.48
2022-11-15T03:59:25.823Z,87.29
2022-11-15T04:01:52.717Z,87.70
2022-11-15T04:04:19.660Z,87.63
2022-11-15T04:06:46.767Z,87.68
2022-11-15T04:09:13.726Z,87.91
2022-11-15T04:11:40.633Z,87.93
2022-11-15T04:14:07.504Z,88.04
2022-11-15T04:16:35.774Z,88.00
2022-11-15T04:19:22.891Z,88.11
2022-11-15T04:22:08.419Z,88.09
2022-11-15T04:24:35.327Z,88.14
2022-11-15T04:27:02.342Z,88.39
2022-11-15T04:29:38.103Z,88.18
2022-11-15T04:32:06.472Z,88.36
2022-11-15T04:34:33.756Z,88.20
2022-11-15T04:37:17.185Z,88.53
2022-11-15T04:39:44.469Z,88.21
2022-11-15T04:42:11.571Z,88.33
2022-11-15T04:44:38.704Z,88.46
2022-11-15T04:47:05.740Z,88.68
2022-11-15T04:49:32.666Z,88.58
2022-11-15T04:51:59.697Z,88.76
2022-11-15T04:54:26.992Z,88.78
2022-11-15T04:56:53.906Z,89.03
2022-11-15T04:59:20.860Z,89.01
2022-11-15T05:01:48.083Z,89.04
2022-11-15T05:04:20.989Z,89.06
2022-11-15T05:06:51.886Z,89.05
2022-11-15T05:09:19.861Z,89.11
2022-11-15T05:11:48.009Z,89.15
2022-11-15T05:14:15.304Z,88.97
2022-11-15T05:16:42.337Z,89.36
2022-11-15T05:19:09.219Z,89.24
2022-11-15T05:21:36.323Z,89.51
2022-11-15T05:24:03.380Z,89.26
2022-11-15T05:26:30.311Z,89.62
2022-11-15T05:28:58.397Z,89.65
2022-11-15T05:31:25.727Z,89.60
2022-11-15T05:33:52.922Z,89.61
2022-11-15T05:36:33.089Z,89.73
2022-11-15T05:39:00.000Z,89.70
2022-11-15T05:42:01.602Z,89.60
2022-11-15T05:44:28.647Z,89.55
2022-11-15T05:46:55.647Z,89.86
2022-11-15T05:49:24.676Z,89.86
2022-11-15T05:51:51.640Z,89.72
2022-11-15T05:54:18.533Z,89.89
2022-11-15T05:56:45.442Z,89.76
2022-11-15T05:59:12.332Z,89.95
2022-11-15T06:01:39.341Z,89.83
2022-11-15T06:04:06.253Z,90.06
2022-11-15T06:06:33.176Z,90.00
2022-11-15T06:09:00.043Z,90.32
2022-11-15T06:11:26.992Z,90.29
2022-11-15T06:13:53.878Z,90.07
2022-11-15T06:16:20.782Z,90.12
2022-11-15T06:18:48.001Z,90.19
2022-11-15T06:21:14.910Z,90.32
2022-11-15T06:23:41.865Z,90.20
2022-11-15T06:26:28.993Z,90.09
2022-11-15T06:28:55.920Z,90.25
2022-11-15T06:31:22.835Z,90.24
2022-11-15T06:33:50.649Z,90.32
2022-11-15T06:36:18.306Z,90.37
2022-11-15T06:38:46.049Z,90.32
2022-11-15T06:41:18.856Z,90.28
2022-11-15T06:43:45.808Z,90.48
2022-11-15T06:46:12.707Z,90.41
2022-11-15T06:48:41.163Z,90.47
2022-11-15T06:51:09.162Z,90.47
2022-11-15T06:53:36.118Z,90.39
2022-11-15T06:56:04.902Z,90.54
2022-11-15T06:58:32.121Z,90.34
2022-11-15T07:01:00.935Z,90.56
2022-11-15T07:03:28.112Z,90.58
2022-11-15T07:05:56.077Z,90.73
2022-11-15T07:08:28.614Z,90.61
2022-11-15T07:10:56.099Z,90.73
2022-11-15T07:13:26.043Z,90.61
2022-11-15T07:15:53.028Z,90.63
2022-11-15T07:18:20.115Z,90.53
2022-11-15T07:20:50.336Z,91.07
2022-11-15T07:23:17.306Z,90.90
2022-11-15T07:25:44.320Z,90.58
2022-11-15T07:28:11.483Z,90.68
2022-11-15T07:30:42.592Z,90.75
2022-11-15T07:33:12.228Z,90.66
2022-11-15T07:35:39.302Z,90.55
2022-11-15T07:38:06.199Z,90.80
2022-11-15T07:40:35.331Z,90.76
2022-11-15T07:43:04.001Z,90.62
2022-11-15T07:45:30.996Z,90.55
2022-11-15T07:47:58.028Z,90.60
2022-11-15T07:50:25.373Z,90.67
2022-11-15T07:52:56.865Z,90.57
2022-11-15T07:55:25.023Z,90.75
2022-11-15T07:57:52.028Z,90.53
2022-11-15T08:00:19.372Z,90.66
2022-11-15T08:02:46.883Z,90.55
2022-11-15T08:05:14.496Z,90.78
2022-11-15T08:07:41.563Z,90.62
2022-11-15T08:10:09.065Z,90.88
2022-11-15T08:12:36.197Z,90.82
2022-11-15T08:15:03.338Z,90.72
2022-11-15T08:17:33.910Z,90.68
2022-11-15T08:20:01.061Z,90.80
2022-11-15T08:22:28.262Z,90.71
2022-11-15T08:24:58.197Z,90.87
2022-11-15T08:27:25.193Z,90.75
2022-11-15T08:29:56.790Z,90.74
2022-11-15T08:32:29.000Z,90.81
2022-11-15T08:34:55.921Z,90.83
2022-11-15T08:37:22.827Z,90.94
2022-11-15T08:39:49.733Z,90.82
2022-11-15T08:42:20.055Z,90.72
2022-11-15T08:44:47.221Z,90.98
2022-11-15T08:47:14.880Z,90.85
2022-11-15T08:49:41.791Z,90.84
2022-11-15T08:52:08.692Z,90.78
2022-11-15T08:54:35.580Z,90.88
2022-11-15T08:57:02.486Z,90.93
2022-11-15T08:59:29.640Z,90.99
2022-11-15T09:01:59.613Z,91.16
2022-11-15T09:04:27.030Z,90.91
2022-11-15T09:06:57.751Z,90.74
2022-11-15T09:09:24.696Z,90.96
2022-11-15T09:11:58.061Z,90.97
2022-11-15T09:14:28.003Z,90.99
2022-11-15T09:16:54.889Z,90.72
2022-11-15T09:19:21.799Z,90.87
2022-11-15T09:21:48.699Z,90.83
2022-11-15T09:24:15.600Z,90.96
2022-11-15T09:26:42.630Z,91.03
2022-11-15T09:29:09.539Z,91.05
2022-11-15T09:31:36.475Z,90.91
2022-11-15T09:34:03.394Z,90.82
2022-11-15T09:36:30.803Z,91.04
2022-11-15T09:39:01.874Z,90.72
2022-11-15T09:41:48.293Z,90.72
2022-11-15T09:44:40.288Z,90.64
2022-11-15T09:47:10.031Z,90.92
2022-11-15T09:49:36.921Z,90.57
2022-11-15T09:52:04.026Z,90.68
2022-11-15T09:54:57.188Z,90.52
2022-11-15T09:57:36.086Z,90.66
2022-11-15T10:03:12.720Z,90.48
2022-11-15T10:05:44.924Z,90.34
2022-11-15T10:08:11.673Z,90.28
2022-11-15T10:10:43.545Z,90.00
2022-11-15T10:13:21.747Z,89.99
2022-11-15T10:15:49.506Z,89.64
2022-11-15T10:18:36.132Z,89.67
2022-11-15T10:21:21.295Z,89.59
2022-11-15T10:23:48.793Z,89.13
2022-11-15T10:26:18.272Z,88.84
2022-11-15T10:28:45.172Z,88.60
2022-11-15T10:31:26.937Z,88.42
2022-11-15T10:34:19.640Z,88.64
2022-11-15T10:36:50.487Z,88.61
2022-11-15T10:39:20.322Z,88.43
2022-11-15T10:41:50.448Z,88.24
2022-11-15T10:44:26.057Z,87.78
2022-11-15T10:46:55.787Z,87.67
2022-11-15T10:49:27.308Z,87.15
2022-11-15T10:52:12.952Z,87.40
2022-11-15T10:54:52.766Z,86.86
2022-11-15T10:57:21.429Z,86.47
2022-11-15T10:59:51.189Z,85.91
2022-11-15T11:02:28.785Z,86.06
2022-11-15T11:04:55.717Z,85.57
2022-11-15T11:07:25.074Z,85.29
2022-11-15T11:10:03.625Z,84.69
2022-11-15T11:12:34.107Z,84.60
2022-11-15T11:15:03.255Z,84.49
2022-11-15T11:17:37.268Z,84.06
2022-11-15T11:20:35.150Z,84.13
2022-11-15T11:23:19.959Z,83.95
2022-11-15T11:25:57.086Z,83.96
2022-11-15T11:28:50.146Z,83.48
2022-11-15T11:31:35.494Z,83.59
2022-11-15T11:34:02.244Z,83.26
2022-11-15T11:37:07.398Z,83.21
2022-11-15T11:40:02.176Z,82.88
2022-11-15T11:43:03.124Z,82.75
2022-11-15T11:45:57.763Z,82.33
2022-11-15T11:48:44.212Z,82.24
2022-11-15T11:51:21.973Z,81.85
2022-11-15T11:53:54.212Z,81.45
2022-11-15T11:56:28.097Z,81.22
2022-11-15T11:58:57.286Z,81.32
2022-11-15T12:01:34.025Z,81.02
2022-11-15T12:04:06.971Z,80.95
2022-11-15T12:06:41.518Z,80.69
2022-11-15T12:09:13.040Z,80.22
2022-11-15T12:11:53.577Z,80.34
2022-11-15T12:14:32.029Z,80.16
2022-11-15T12:16:59.809Z,80.06
2022-11-15T12:19:30.127Z,79.87
2022-11-15T12:22:07.163Z,79.65
2022-11-15T12:24:47.044Z,79.69
2022-11-15T12:27:28.268Z,79.38
2022-11-15T12:29:59.640Z,79.33
2022-11-15T12:32:37.976Z,79.08
2022-11-15T12:35:07.327Z,78.91
2022-11-15T12:37:45.077Z,78.66
2022-11-15T12:40:22.689Z,78.92
2022-11-15T12:43:03.782Z,78.86
2022-11-15T12:45:34.774Z,78.58
2022-11-15T12:48:16.867Z,78.57
2022-11-15T12:50:56.696Z,78.38
2022-11-15T12:53:30.409Z,78.57
2022-11-15T12:56:12.587Z,78.24
2022-11-15T12:58:56.064Z,78.16
2022-11-15T13:01:32.309Z,77.87
2022-11-15T13:04:21.120Z,77.82
2022-11-15T13:06:53.255Z,77.51
2022-11-15T13:09:50.954Z,77.72
2022-11-15T13:12:26.927Z,77.67
2022-11-15T13:15:12.618Z,77.17
2022-11-15T13:17:49.252Z,77.62
2022-11-15T13:20:16.077Z,77.52
2022-11-15T13:22:52.413Z,77.06
2022-11-15T13:25:37.609Z,77.33
2022-11-15T13:28:17.763Z,76.94
2022-11-15T13:30:53.223Z,77.34
2022-11-15T13:33:22.682Z,77.25
2022-11-15T13:35:53.244Z,77.19
2022-11-15T13:38:27.798Z,77.36
2022-11-15T13:40:54.887Z,77.16
2022-11-15T13:43:35.624Z,77.30
2022-11-15T13:46:21.605Z,76.88
2022-11-15T13:49:01.702Z,77.17
2022-11-15T13:51:31.122Z,77.11
2022-11-15T13:54:07.958Z,76.88
2022-11-15T13:56:35.144Z,76.89
2022-11-15T13:59:09.439Z,77.00
2022-11-15T14:01:36.361Z,77.05
2022-11-15T14:04:03.368Z,76.97
2022-11-15T14:06:36.449Z,76.88
2022-11-15T14:09:11.748Z,76.87
2022-11-15T14:11:49.814Z,77.11
2022-11-15T14:14:16.948Z,77.18
2022-11-15T14:16:45.810Z,76.98
2022-11-15T14:19:24.186Z,76.89
2022-11-15T14:22:27.100Z,77.00
2022-11-15T14:25:22.234Z,77.04
2022-11-15T14:28:10.902Z,76.83
2022-11-15T14:30:37.839Z,76.43
2022-11-15T14:33:20.278Z,76.20
2022-11-15T14:35:47.255Z,76.51
2022-11-15T14:38:15.054Z,76.42
2022-11-15T14:40:42.208Z,76.40
2022-11-15T14:43:13.167Z,76.30
2022-11-15T14:45:40.207Z,76.60
2022-11-15T14:48:07.114Z,76.45
2022-11-15T14:50:34.366Z,76.49
2022-11-15T14:53:01.450Z,76.51
2022-11-15T14:55:33.592Z,76.29
2022-11-15T14:58:00.831Z,76.44
2022-11-15T15:00:32.325Z,76.68
2022-11-15T15:03:04.384Z,76.74
2022-11-15T15:05:40.186Z,76.65
2022-11-15T15:08:07.706Z,76.46
2022-11-15T15:10:43.071Z,76.51
2022-11-15T15:13:21.203Z,76.61
2022-11-15T15:15:48.669Z,76.75
2022-11-15T15:18:16.633Z,76.76
2022-11-15T15:20:44.365Z,76.93
2022-11-15T15:23:21.005Z,77.21
2022-11-15T15:25:49.839Z,76.94
2022-11-15T15:28:17.035Z,76.99
2022-11-15T15:30:46.926Z,77.02
2022-11-15T15:33:13.829Z,77.17
2022-11-15T15:35:40.719Z,77.12
2022-11-15T15:38:07.609Z,77.08
2022-11-15T15:40:34.557Z,77.23
2022-11-15T15:43:01.639Z,77.32
2022-11-15T15:45:29.458Z,77.05
2022-11-15T15:47:56.883Z,77.05
2022-11-15T15:50:34.164Z,76.95
2022-11-15T15:53:04.409Z,77.01
2022-11-15T15:55:31.471Z,77.03
2022-11-15T15:57:58.361Z,76.97
2022-11-15T16:00:26.062Z,76.83
2022-11-15T16:02:53.478Z,76.93
2022-11-15T16:05:20.380Z,76.74
2022-11-15T16:07:48.349Z,76.64
2022-11-15T16:10:22.654Z,76.73
2022-11-15T16:12:49.730Z,76.74
2022-11-15T16:15:19.871Z,76.64
2022-11-15T16:17:50.164Z,76.37
2022-11-15T16:20:33.883Z,76.28
2022-11-15T16:23:07.334Z,76.28
2022-11-15T16:25:47.138Z,76.06
2022-11-15T16:28:31.970Z,76.14
2022-11-15T16:31:08.717Z,76.30
2022-11-15T16:33:36.108Z,76.14
2022-11-15T16:36:04.751Z,76.00
2022-11-15T16:38:32.323Z,76.00
2022-11-15T16:40:59.724Z,76.09
2022-11-15T16:43:26.798Z,75.93
2022-11-15T16:45:53.708Z,75.94
2022-11-15T16:48:26.684Z,75.78
2022-11-15T16:51:00.120Z,75.78
2022-11-15T16:53:27.806Z,75.80
2022-11-15T16:55:57.914Z,75.58
2022-11-15T16:58:25.140Z,75.66
2022-11-15T17:00:56.036Z,75.72
2022-11-15T17:03:24.060Z,75.58
2022-11-15T17:05:51.193Z,75.44
2022-11-15T17:08:20.898Z,75.48
2022-11-15T17:10:48.141Z,75.44
2022-11-15T17:13:15.032Z,75.11
2022-11-15T17:15:42.034Z,75.63
2022-11-15T17:18:12.238Z,75.66
2022-11-15T17:20:40.473Z,75.58
2022-11-15T17:23:12.257Z,75.40
2022-11-15T17:25:39.167Z,75.39
2022-11-15T17:28:06.051Z,75.58
2022-11-15T17:30:32.936Z,75.29
2022-11-15T17:33:01.088Z,75.18
2022-11-15T17:35:27.968Z,75.39
2022-11-15T17:37:54.898Z,75.24
2022-11-15T17:40:21.799Z,75.14
2022-11-15T17:42:48.818Z,75.26
2022-11-15T17:45:15.729Z,75.57
2022-11-15T17:47:42.634Z,75.21
2022-11-15T17:50:09.882Z,75.38
2022-11-15T17:52:36.854Z,75.40
2022-11-15T17:55:03.874Z,75.32
2022-11-15T17:57:30.960Z,75.45
2022-11-15T17:59:57.869Z,75.18
2022-11-15T18:02:24.761Z,75.37
2022-11-15T18:04:51.661Z,75.35
2022-11-15T18:07:18.610Z,75.44
2022-11-15T18:09:45.791Z,75.43
2022-11-15T18:12:12.730Z,75.59
2022-11-15T18:14:39.770Z,75.55
2022-11-15T18:17:06.705Z,75.51
2022-11-15T18:19:33.784Z,75.57
2022-11-15T18:22:01.872Z,75.82
2022-11-15T18:24:30.834Z,76.20
2022-11-15T18:26:59.039Z,76.30
2022-11-15T18:29:26.013Z,76.53
2022-11-15T18:31:57.039Z,76.51
2022-11-15T18:34:24.944Z,76.95
2022-11-15T18:36:52.547Z,77.01
2022-11-15T18:39:19.615Z,77.37
2022-11-15T18:41:47.080Z,77.66
2022-11-15T18:44:14.325Z,77.87
2022-11-15T18:46:41.379Z,77.98
2022-11-15T18:49:09.995Z,78.29
2022-11-15T18:51:41.909Z,78.39
2022-11-15T18:54:10.537Z,78.53
2022-11-15T18:56:37.677Z,78.73
2022-11-15T18:59:05.233Z,78.68
2022-11-15T19:01:38.105Z,78.82
2022-11-15T19:04:13.088Z,79.12
2022-11-15T19:06:41.505Z,79.12
2022-11-15T19:09:09.123Z,79.29
2022-11-15T19:11:37.302Z,79.64
2022-11-15T19:14:06.551Z,79.57
2022-11-15T19:16:35.592Z,79.72
2022-11-15T19:19:05.121Z,79.90
2022-11-15T19:21:32.291Z,80.18
2022-11-15T19:23:59.682Z,80.17
2022-11-15T19:26:27.387Z,80.24
2022-11-15T19:28:59.262Z,80.52
2022-11-15T19:31:28.113Z,80.60
2022-11-15T19:33:57.132Z,80.70
2022-11-15T19:36:26.997Z,80.74
2022-11-15T19:38:57.299Z,80.84
2022-11-15T19:41:26.883Z,80.86
2022-11-15T19:43:53.832Z,81.00
2022-11-15T19:46:22.039Z,80.92
2022-11-15T19:48:49.245Z,81.16
2022-11-15T19:51:21.882Z,81.15
2022-11-15T19:53:49.940Z,81.35
2022-11-15T19:56:17.798Z,81.43
2022-11-15T19:58:45.299Z,81.45
2022-11-15T20:01:19.147Z,81.67
2022-11-15T20:03:50.148Z,81.66
2022-11-15T20:06:18.590Z,81.85
2022-11-15T20:08:46.428Z,81.91
2022-11-15T20:11:13.681Z,82.26
2022-11-15T20:13:40.960Z,82.17
2022-11-15T20:16:07.904Z,82.39
2022-11-15T20:18:35.413Z,82.29
2022-11-15T20:21:04.672Z,82.20
2022-11-15T20:23:31.623Z,82.44
2022-11-15T20:25:58.563Z,82.54
2022-11-15T20:28:27.177Z,82.89
2022-11-15T20:30:57.561Z,82.69
2022-11-15T20:33:25.338Z,82.85
2022-11-15T20:35:52.389Z,82.84
2022-11-15T20:38:20.525Z,82.92
2022-11-15T20:40:48.511Z,83.08
2022-11-15T20:43:17.383Z,83.26
2022-11-15T20:45:50.694Z,83.12
2022-11-15T20:48:17.832Z,83.31
2022-11-15T20:50:45.657Z,83.47
2022-11-15T20:53:14.173Z,83.43
2022-11-15T20:55:44.510Z,83.60
2022-11-15T20:58:11.516Z,83.71
2022-11-15T21:00:38.617Z,83.76
2022-11-15T21:03:08.783Z,83.71
2022-11-15T21:05:38.351Z,83.82
2022-11-15T21:08:05.441Z,84.11
2022-11-15T21:10:50.881Z,84.05
2022-11-15T21:13:21.104Z,83.92
2022-11-15T21:15:48.221Z,84.05
2022-11-15T21:18:15.181Z,84.19
2022-11-15T21:20:42.283Z,84.67
2022-11-15T21:23:12.377Z,84.55
2022-11-15T21:25:39.348Z,84.53
2022-11-15T21:28:06.345Z,84.60
2022-11-15T21:30:33.667Z,84.65
2022-11-15T21:33:00.739Z,84.79
2022-11-15T21:35:30.232Z,84.67
2022-11-15T21:37:57.365Z,84.83
2022-11-15T21:40:25.036Z,84.92
2022-11-15T21:42:51.932Z,85.09
2022-11-15T21:45:18.809Z,85.05
2022-11-15T21:47:46.646Z,85.36
2022-11-15T21:50:14.207Z,85.11
2022-11-15T21:52:41.441Z,85.55
2022-11-15T21:55:08.950Z,85.55
2022-11-15T21:57:35.832Z,85.49
2022-11-15T22:00:21.327Z,85.51
2022-11-15T22:02:48.210Z,85.55
2022-11-15T22:05:15.107Z,85.75
2022-11-15T22:07:42.003Z,85.81
2022-11-15T22:10:09.107Z,85.62
2022-11-15T22:12:36.294Z,85.63
2022-11-15T22:15:03.272Z,85.92
2022-11-15T22:17:50.243Z,86.14
2022-11-15T22:20:42.989Z,85.90
2022-11-15T22:23:04.006Z,85.95
2022-11-15T22:25:31.014Z,86.11
2022-11-15T22:27:58.131Z,86.02
2022-11-15T22:30:25.366Z,86.21
2022-11-15T22:32:52.292Z,86.37
2022-11-15T22:35:19.187Z,86.55
2022-11-15T22:37:46.109Z,86.53
2022-11-15T22:40:12.990Z,86.54
2022-11-15T22:42:39.867Z,86.67
2022-11-15T22:45:07.014Z,86.61
2022-11-15T22:47:33.957Z,86.60
2022-11-15T22:50:00.876Z,86.69
2022-11-15T22:52:27.819Z,86.73
2022-11-15T22:54:54.756Z,86.67
2022-11-15T22:57:21.667Z,86.80
2022-11-15T22:59:48.639Z,86.86
2022-11-15T23:02:15.525Z,86.93
2022-11-15T23:04:42.556Z,87.18
2022-11-15T23:07:09.562Z,87.22
2022-11-15T23:09:36.947Z,86.92
2022-11-15T23:12:22.918Z,87.04
2022-11-15T23:14:49.798Z,87.13
2022-11-15T23:17:16.774Z,87.06
2022-11-15T23:19:43.656Z,87.17
2022-11-15T23:22:29.292Z,87.42
2022-11-15T23:24:56.815Z,87.43
2022-11-15T23:27:23.916Z,87.20
2022-11-15T23:30:09.289Z,87.37
2022-11-15T23:32:54.765Z,87.27
2022-11-15T23:35:21.747Z,87.57
2022-11-15T23:37:48.644Z,87.22
2022-11-15T23:40:15.559Z,87.60
2022-11-15T23:42:42.481Z,87.47
2022-11-15T23:45:09.629Z,87.63
2022-11-15T23:47:36.525Z,87.48
2022-11-15T23:50:04.093Z,87.66
2022-11-15T23:52:31.036Z,87.79
2022-11-15T23:54:57.908Z,87.81
2022-11-15T23:57:24.827Z,87.91
2022-11-15T23:59:51.725Z,87.83
